Isle St George, Ohio
Current Conditions -  °F | °C
As of 5:12 PM on Tuesday 25 Nov 2014 (Local Time) from KPCW Reporting Station
Overcast Overcast  
Wind Chill: 26°   Ceiling: 2900
Heat Index: 34°   Visibility: 10mi
Dew Point: 25°   Wind: 9mph
Humidity: 70%   Direction: 230°SW
Pressure: 30.12"   Gusts: NA
Location:  41.7244°N, 82.8167°W
Report Text: KPCW 252212Z AUTO 23008KT 10SM OVC029 01/M04 A3012 RMK AO2 $
Loading
Personal Weather Stations






























Interactive Weather Map New forecast layout! Learn more

10-Day Weather Forecast

Advertisements
Track Severe Weather on mobile